Terminal Aerodrome Forecast
Issued by NWS Bismarck, ND

Home | Current Version | Previous Version | Graphics & Text | Print | Product List | Glossary On
Versions: 1 2 3 4 5 6 7 8 9 10 11 12 13 14 15 16 17 18 19
330
FTUS43 KBIS 062339
TAFBIS
TAF
KBIS 062339Z 0700/0724 28019G27KT P6SM FEW080 SCT120
     FM070500 29028G42KT P6SM BKN150
     FM071200 31029G43KT P6SM BKN060
     FM071800 32034G52KT P6SM VCSH OVC020=

USA.gov is the U.S. government's official web portal to all federal, state and local government web resources and services.